sensor_id;sensor_type;location;lat;lon;timestamp;pressure;altitude;pressure_sealevel;temperature;humidity
7026;BME280;3554;42.132;24.786;2023-03-21T00:02:24;99328.06;;;12.49;100.00
7026;BME280;3554;42.132;24.786;2023-03-21T00:04:51;99321.03;;;12.49;100.00
7026;BME280;3554;42.132;24.786;2023-03-21T00:07:18;99312.38;;;12.47;100.00
7026;BME280;3554;42.132;24.786;2023-03-21T00:09:45;99315.34;;;12.58;100.00
7026;BME280;3554;42.132;24.786;2023-03-21T00:12:12;99309.06;;;12.61;100.00
7026;BME280;3554;42.132;24.786;2023-03-21T00:14:41;99304.44;;;12.49;100.00
7026;BME280;3554;42.132;24.786;2023-03-21T00:17:10;99293.59;;;12.38;100.00
7026;BME280;3554;42.132;24.786;2023-03-21T00:19:37;99293.75;;;12.52;100.00
7026;BME280;3554;42.132;24.786;2023-03-21T00:22:05;99279.78;;;12.51;100.00
7026;BME280;3554;42.132;24.786;2023-03-21T00:24:32;99284.44;;;12.63;100.00
7026;BME280;3554;42.132;24.786;2023-03-21T00:26:59;99271.84;;;12.53;100.00
7026;BME280;3554;42.132;24.786;2023-03-21T00:29:26;99283.59;;;12.63;100.00
7026;BME280;3554;42.132;24.786;2023-03-21T00:31:53;99282.81;;;12.61;100.00
7026;BME280;3554;42.132;24.786;2023-03-21T00:34:21;99274.47;;;12.53;100.00
7026;BME280;3554;42.132;24.786;2023-03-21T00:36:48;99270.66;;;12.24;100.00
7026;BME280;3554;42.132;24.786;2023-03-21T00:39:15;99264.31;;;12.28;100.00
7026;BME280;3554;42.132;24.786;2023-03-21T00:41:42;99253.19;;;12.23;100.00
7026;BME280;3554;42.132;24.786;2023-03-21T00:44:09;99218.59;;;11.98;100.00
7026;BME280;3554;42.132;24.786;2023-03-21T00:46:37;99231.66;;;12.00;100.00
7026;BME280;3554;42.132;24.786;2023-03-21T00:49:04;99263.63;;;12.25;100.00
7026;BME280;3554;42.132;24.786;2023-03-21T00:51:32;99238.94;;;12.29;100.00
7026;BME280;3554;42.132;24.786;2023-03-21T00:53:59;99232.34;;;12.03;100.00
7026;BME280;3554;42.132;24.786;2023-03-21T00:56:26;99247.81;;;12.26;100.00
7026;BME280;3554;42.132;24.786;2023-03-21T00:58:53;99244.72;;;12.18;100.00
7026;BME280;3554;42.132;24.786;2023-03-21T01:01:20;99229.84;;;12.00;100.00
7026;BME280;3554;42.132;24.786;2023-03-21T01:03:46;99235.53;;;11.91;100.00
7026;BME280;3554;42.132;24.786;2023-03-21T01:06:16;99226.38;;;11.64;100.00
7026;BME280;3554;42.132;24.786;2023-03-21T01:08:47;99224.09;;;11.75;100.00
7026;BME280;3554;42.132;24.786;2023-03-21T01:11:16;99221.41;;;11.58;100.00
7026;BME280;3554;42.132;24.786;2023-03-21T01:13:44;99224.59;;;11.64;100.00
7026;BME280;3554;42.132;24.786;2023-03-21T01:16:11;99216.94;;;11.78;100.00
7026;BME280;3554;42.132;24.786;2023-03-21T01:18:39;99201.28;;;11.58;100.00
7026;BME280;3554;42.132;24.786;2023-03-21T01:21:09;99207.03;;;11.48;100.00
7026;BME280;3554;42.132;24.786;2023-03-21T01:23:38;99196.31;;;11.52;100.00
7026;BME280;3554;42.132;24.786;2023-03-21T01:26:07;99197.56;;;11.62;100.00
7026;BME280;3554;42.132;24.786;2023-03-21T01:28:36;99184.34;;;11.47;100.00
7026;BME280;3554;42.132;24.786;2023-03-21T01:31:04;99178.75;;;11.36;100.00
7026;BME280;3554;42.132;24.786;2023-03-21T01:33:32;99204.34;;;11.49;100.00
7026;BME280;3554;42.132;24.786;2023-03-21T01:35:59;99199.53;;;11.40;100.00
7026;BME280;3554;42.132;24.786;2023-03-21T01:38:26;99190.03;;;11.38;100.00
7026;BME280;3554;42.132;24.786;2023-03-21T01:40:53;99199.91;;;11.50;100.00
7026;BME280;3554;42.132;24.786;2023-03-21T01:43:25;99131.34;;;11.05;100.00
7026;BME280;3554;42.132;24.786;2023-03-21T01:46:17;99201.06;;;11.26;100.00
7026;BME280;3554;42.132;24.786;2023-03-21T01:48:50;99187.19;;;11.24;100.00
7026;BME280;3554;42.132;24.786;2023-03-21T01:51:18;99189.75;;;11.07;100.00
7026;BME280;3554;42.132;24.786;2023-03-21T01:53:46;99183.22;;;11.15;100.00
7026;BME280;3554;42.132;24.786;2023-03-21T01:56:17;99142.38;;;11.11;100.00
7026;BME280;3554;42.132;24.786;2023-03-21T01:58:47;99172.75;;;11.34;100.00
7026;BME280;3554;42.132;24.786;2023-03-21T02:01:15;99171.59;;;11.02;100.00
7026;BME280;3554;42.132;24.786;2023-03-21T02:03:45;99165.97;;;10.93;100.00
7026;BME280;3554;42.132;24.786;2023-03-21T02:06:23;99168.69;;;10.90;100.00
7026;BME280;3554;42.132;24.786;2023-03-21T02:08:56;99160.34;;;10.82;100.00
7026;BME280;3554;42.132;24.786;2023-03-21T02:11:23;99163.63;;;10.66;100.00
7026;BME280;3554;42.132;24.786;2023-03-21T02:13:52;99156.25;;;10.56;100.00
7026;BME280;3554;42.132;24.786;2023-03-21T02:16:27;99155.53;;;10.52;100.00
7026;BME280;3554;42.132;24.786;2023-03-21T02:19:02;99150.19;;;10.55;100.00
7026;BME280;3554;42.132;24.786;2023-03-21T02:21:54;99156.97;;;10.59;100.00
7026;BME280;3554;42.132;24.786;2023-03-21T02:27:23;99152.75;;;10.37;100.00
7026;BME280;3554;42.132;24.786;2023-03-21T02:33:39;99150.19;;;10.35;100.00
7026;BME280;3554;42.132;24.786;2023-03-21T02:36:26;99149.81;;;10.44;100.00
7026;BME280;3554;42.132;24.786;2023-03-21T02:39:07;99159.47;;;10.42;100.00
7026;BME280;3554;42.132;24.786;2023-03-21T02:41:46;99162.41;;;10.35;100.00
7026;BME280;3554;42.132;24.786;2023-03-21T02:44:18;99119.91;;;10.30;100.00
7026;BME280;3554;42.132;24.786;2023-03-21T02:46:50;99165.47;;;10.64;100.00
7026;BME280;3554;42.132;24.786;2023-03-21T02:49:22;99167.63;;;10.75;100.00
7026;BME280;3554;42.132;24.786;2023-03-21T02:51:50;99170.75;;;10.83;100.00
7026;BME280;3554;42.132;24.786;2023-03-21T02:54:21;99163.38;;;10.52;100.00
7026;BME280;3554;42.132;24.786;2023-03-21T02:56:50;99165.28;;;10.69;100.00
7026;BME280;3554;42.132;24.786;2023-03-21T02:59:20;99173.63;;;10.77;100.00
7026;BME280;3554;42.132;24.786;2023-03-21T03:01:49;99170.06;;;10.59;100.00
7026;BME280;3554;42.132;24.786;2023-03-21T03:04:21;99162.56;;;10.32;100.00
7026;BME280;3554;42.132;24.786;2023-03-21T03:07:07;99165.94;;;10.54;100.00
7026;BME280;3554;42.132;24.786;2023-03-21T03:09:50;99167.25;;;10.64;100.00
7026;BME280;3554;42.132;24.786;2023-03-21T03:12:26;99175.19;;;10.62;100.00
7026;BME280;3554;42.132;24.786;2023-03-21T03:15:03;99177.09;;;10.77;100.00
7026;BME280;3554;42.132;24.786;2023-03-21T03:17:47;99185.34;;;10.68;100.00
7026;BME280;3554;42.132;24.786;2023-03-21T03:20:24;99186.19;;;10.89;100.00
7026;BME280;3554;42.132;24.786;2023-03-21T03:22:59;99190.34;;;10.93;100.00
7026;BME280;3554;42.132;24.786;2023-03-21T03:25:33;99169.06;;;10.82;100.00
7026;BME280;3554;42.132;24.786;2023-03-21T03:28:04;99159.72;;;10.56;100.00
7026;BME280;3554;42.132;24.786;2023-03-21T03:30:32;99190.41;;;10.73;100.00
7026;BME280;3554;42.132;24.786;2023-03-21T03:33:04;99190.34;;;10.74;100.00
7026;BME280;3554;42.132;24.786;2023-03-21T03:35:33;99164.34;;;10.70;100.00
7026;BME280;3554;42.132;24.786;2023-03-21T03:38:03;99188.03;;;10.87;100.00
7026;BME280;3554;42.132;24.786;2023-03-21T03:40:38;99154.59;;;10.73;100.00
7026;BME280;3554;42.132;24.786;2023-03-21T03:43:09;99178.38;;;10.88;100.00
7026;BME280;3554;42.132;24.786;2023-03-21T03:45:41;99171.69;;;10.82;100.00
7026;BME280;3554;42.132;24.786;2023-03-21T03:48:14;99166.47;;;10.80;100.00
7026;BME280;3554;42.132;24.786;2023-03-21T03:50:47;99161.66;;;10.13;100.00
7026;BME280;3554;42.132;24.786;2023-03-21T03:53:19;99166.28;;;9.63;100.00
7026;BME280;3554;42.132;24.786;2023-03-21T03:55:49;99161.81;;;9.45;100.00
7026;BME280;3554;42.132;24.786;2023-03-21T03:58:17;99163.16;;;9.97;100.00
7026;BME280;3554;42.132;24.786;2023-03-21T04:00:45;99101.59;;;9.90;100.00
7026;BME280;3554;42.132;24.786;2023-03-21T04:03:12;99151.88;;;10.36;100.00
7026;BME280;3554;42.132;24.786;2023-03-21T04:05:39;99145.75;;;10.17;100.00
7026;BME280;3554;42.132;24.786;2023-03-21T04:08:07;99151.69;;;10.21;100.00
7026;BME280;3554;42.132;24.786;2023-03-21T04:10:33;99139.91;;;10.31;100.00
7026;BME280;3554;42.132;24.786;2023-03-21T04:13:02;99147.88;;;9.88;100.00
7026;BME280;3554;42.132;24.786;2023-03-21T04:15:28;99141.84;;;9.86;100.00
7026;BME280;3554;42.132;24.786;2023-03-21T04:17:55;99140.00;;;10.08;100.00
7026;BME280;3554;42.132;24.786;2023-03-21T04:20:22;99140.13;;;10.26;100.00
7026;BME280;3554;42.132;24.786;2023-03-21T04:22:49;99145.97;;;10.13;100.00
7026;BME280;3554;42.132;24.786;2023-03-21T04:25:17;99142.91;;;10.02;100.00
7026;BME280;3554;42.132;24.786;2023-03-21T04:27:43;99146.59;;;10.18;100.00
7026;BME280;3554;42.132;24.786;2023-03-21T04:30:13;99136.66;;;10.26;100.00
7026;BME280;3554;42.132;24.786;2023-03-21T04:32:40;99148.88;;;10.25;100.00
7026;BME280;3554;42.132;24.786;2023-03-21T04:35:08;99147.66;;;10.34;100.00
7026;BME280;3554;42.132;24.786;2023-03-21T04:37:35;99142.16;;;10.20;100.00
7026;BME280;3554;42.132;24.786;2023-03-21T04:40:04;99151.53;;;10.04;100.00
7026;BME280;3554;42.132;24.786;2023-03-21T04:42:32;99136.47;;;9.89;100.00
7026;BME280;3554;42.132;24.786;2023-03-21T04:45:00;99117.69;;;9.79;100.00
7026;BME280;3554;42.132;24.786;2023-03-21T04:47:28;99145.69;;;10.19;100.00
7026;BME280;3554;42.132;24.786;2023-03-21T04:49:55;99144.31;;;10.30;100.00
7026;BME280;3554;42.132;24.786;2023-03-21T04:52:22;99155.81;;;10.46;100.00
7026;BME280;3554;42.132;24.786;2023-03-21T04:54:49;99159.56;;;10.41;100.00
7026;BME280;3554;42.132;24.786;2023-03-21T04:57:16;99149.28;;;10.36;100.00
7026;BME280;3554;42.132;24.786;2023-03-21T04:59:42;99169.16;;;10.60;100.00
7026;BME280;3554;42.132;24.786;2023-03-21T05:02:10;99176.47;;;10.72;100.00
7026;BME280;3554;42.132;24.786;2023-03-21T05:04:39;99178.69;;;10.61;100.00
7026;BME280;3554;42.132;24.786;2023-03-21T05:07:05;99164.13;;;10.36;100.00
7026;BME280;3554;42.132;24.786;2023-03-21T05:09:32;99174.72;;;10.13;100.00
7026;BME280;3554;42.132;24.786;2023-03-21T05:11:59;99174.59;;;10.16;100.00
7026;BME280;3554;42.132;24.786;2023-03-21T05:14:26;99169.06;;;10.22;100.00
7026;BME280;3554;42.132;24.786;2023-03-21T05:16:53;99165.88;;;10.55;100.00
7026;BME280;3554;42.132;24.786;2023-03-21T05:19:24;99175.41;;;10.76;100.00
7026;BME280;3554;42.132;24.786;2023-03-21T05:22:01;99185.97;;;10.94;100.00
7026;BME280;3554;42.132;24.786;2023-03-21T05:24:29;99198.44;;;11.07;100.00
7026;BME280;3554;42.132;24.786;2023-03-21T05:26:57;99189.88;;;11.04;100.00
7026;BME280;3554;42.132;24.786;2023-03-21T05:29:30;99204.63;;;11.25;100.00
7026;BME280;3554;42.132;24.786;2023-03-21T05:31:57;99207.25;;;11.25;100.00
7026;BME280;3554;42.132;24.786;2023-03-21T05:34:25;99201.34;;;11.20;100.00
7026;BME280;3554;42.132;24.786;2023-03-21T05:36:52;99192.38;;;11.07;100.00
7026;BME280;3554;42.132;24.786;2023-03-21T05:39:20;99191.56;;;11.05;100.00
7026;BME280;3554;42.132;24.786;2023-03-21T05:41:47;99184.00;;;10.99;100.00
7026;BME280;3554;42.132;24.786;2023-03-21T05:44:14;99201.75;;;11.11;100.00
7026;BME280;3554;42.132;24.786;2023-03-21T05:46:41;99199.22;;;11.09;100.00
7026;BME280;3554;42.132;24.786;2023-03-21T05:49:09;99197.78;;;11.02;100.00
7026;BME280;3554;42.132;24.786;2023-03-21T05:51:37;99198.41;;;10.89;100.00
7026;BME280;3554;42.132;24.786;2023-03-21T05:54:04;99193.19;;;10.68;100.00
7026;BME280;3554;42.132;24.786;2023-03-21T05:56:32;99198.00;;;10.59;100.00
7026;BME280;3554;42.132;24.786;2023-03-21T05:58:59;99189.16;;;10.41;100.00
7026;BME280;3554;42.132;24.786;2023-03-21T06:01:26;99189.84;;;10.46;100.00
7026;BME280;3554;42.132;24.786;2023-03-21T06:03:53;99192.78;;;10.39;100.00
7026;BME280;3554;42.132;24.786;2023-03-21T06:06:20;99182.38;;;10.37;100.00
7026;BME280;3554;42.132;24.786;2023-03-21T06:08:46;99179.75;;;10.37;100.00
7026;BME280;3554;42.132;24.786;2023-03-21T06:11:19;99177.06;;;10.59;100.00
7026;BME280;3554;42.132;24.786;2023-03-21T06:13:49;99176.22;;;10.58;100.00
7026;BME280;3554;42.132;24.786;2023-03-21T06:16:16;99164.88;;;10.78;100.00
7026;BME280;3554;42.132;24.786;2023-03-21T06:18:43;99176.69;;;10.87;100.00
7026;BME280;3554;42.132;24.786;2023-03-21T06:21:09;99174.94;;;10.87;100.00
7026;BME280;3554;42.132;24.786;2023-03-21T06:23:36;99154.97;;;10.85;100.00
7026;BME280;3554;42.132;24.786;2023-03-21T06:26:04;99176.91;;;10.82;100.00
7026;BME280;3554;42.132;24.786;2023-03-21T06:28:31;99184.66;;;11.22;100.00
7026;BME280;3554;42.132;24.786;2023-03-21T06:30:59;99174.94;;;11.24;100.00
7026;BME280;3554;42.132;24.786;2023-03-21T06:33:26;99184.16;;;11.33;100.00
7026;BME280;3554;42.132;24.786;2023-03-21T06:35:55;99172.53;;;11.38;100.00
7026;BME280;3554;42.132;24.786;2023-03-21T06:38:22;99191.22;;;11.49;100.00
7026;BME280;3554;42.132;24.786;2023-03-21T06:40:50;99187.63;;;11.70;100.00
7026;BME280;3554;42.132;24.786;2023-03-21T06:43:17;99185.97;;;11.68;100.00
7026;BME280;3554;42.132;24.786;2023-03-21T06:45:44;99185.63;;;11.57;100.00
7026;BME280;3554;42.132;24.786;2023-03-21T06:48:12;99187.09;;;11.62;100.00
7026;BME280;3554;42.132;24.786;2023-03-21T06:50:39;99183.50;;;11.65;100.00
7026;BME280;3554;42.132;24.786;2023-03-21T06:53:06;99183.53;;;11.82;100.00
7026;BME280;3554;42.132;24.786;2023-03-21T06:55:32;99186.44;;;12.12;100.00
7026;BME280;3554;42.132;24.786;2023-03-21T06:58:00;99193.72;;;12.07;100.00
7026;BME280;3554;42.132;24.786;2023-03-21T07:00:27;99182.44;;;12.05;100.00
7026;BME280;3554;42.132;24.786;2023-03-21T07:02:54;99193.78;;;12.39;100.00
7026;BME280;3554;42.132;24.786;2023-03-21T07:05:22;99199.47;;;12.64;100.00
7026;BME280;3554;42.132;24.786;2023-03-21T07:07:49;99209.81;;;12.84;100.00
7026;BME280;3554;42.132;24.786;2023-03-21T07:10:16;99217.28;;;12.92;100.00
7026;BME280;3554;42.132;24.786;2023-03-21T07:12:43;99213.28;;;13.02;100.00
7026;BME280;3554;42.132;24.786;2023-03-21T07:15:10;99223.03;;;12.83;100.00
7026;BME280;3554;42.132;24.786;2023-03-21T07:17:37;99213.91;;;12.73;100.00
7026;BME280;3554;42.132;24.786;2023-03-21T07:20:04;99214.38;;;12.64;100.00
7026;BME280;3554;42.132;24.786;2023-03-21T07:22:35;99214.44;;;12.79;100.00
7026;BME280;3554;42.132;24.786;2023-03-21T07:25:02;99208.69;;;13.06;100.00
7026;BME280;3554;42.132;24.786;2023-03-21T07:27:28;99208.81;;;13.20;100.00
7026;BME280;3554;42.132;24.786;2023-03-21T07:29:55;99208.84;;;13.51;100.00
7026;BME280;3554;42.132;24.786;2023-03-21T07:32:22;99209.53;;;13.54;100.00
7026;BME280;3554;42.132;24.786;2023-03-21T07:34:49;99212.13;;;13.39;100.00
7026;BME280;3554;42.132;24.786;2023-03-21T07:37:16;99206.09;;;13.21;100.00
7026;BME280;3554;42.132;24.786;2023-03-21T07:39:44;99212.06;;;13.40;100.00
7026;BME280;3554;42.132;24.786;2023-03-21T07:42:11;99210.63;;;13.66;100.00
7026;BME280;3554;42.132;24.786;2023-03-21T07:44:38;99215.44;;;13.89;100.00
7026;BME280;3554;42.132;24.786;2023-03-21T07:47:07;99112.66;;;13.47;100.00
7026;BME280;3554;42.132;24.786;2023-03-21T07:49:33;99204.09;;;14.34;100.00
7026;BME280;3554;42.132;24.786;2023-03-21T07:52:00;99206.31;;;14.55;100.00
7026;BME280;3554;42.132;24.786;2023-03-21T07:54:27;99211.06;;;14.64;100.00
7026;BME280;3554;42.132;24.786;2023-03-21T07:56:56;99212.47;;;14.70;100.00
7026;BME280;3554;42.132;24.786;2023-03-21T07:59:22;99210.63;;;14.86;100.00
7026;BME280;3554;42.132;24.786;2023-03-21T08:01:49;99212.41;;;15.14;100.00
7026;BME280;3554;42.132;24.786;2023-03-21T08:04:16;99207.78;;;15.31;100.00
7026;BME280;3554;42.132;24.786;2023-03-21T08:06:43;99204.97;;;15.48;100.00
7026;BME280;3554;42.132;24.786;2023-03-21T08:09:10;99209.00;;;14.97;100.00
7026;BME280;3554;42.132;24.786;2023-03-21T08:11:37;99203.53;;;15.00;100.00
7026;BME280;3554;42.132;24.786;2023-03-21T08:14:05;99197.34;;;15.01;100.00
7026;BME280;3554;42.132;24.786;2023-03-21T08:16:32;99204.22;;;15.46;100.00
7026;BME280;3554;42.132;24.786;2023-03-21T08:18:59;99202.50;;;15.59;100.00
7026;BME280;3554;42.132;24.786;2023-03-21T08:21:25;99210.16;;;15.50;100.00
7026;BME280;3554;42.132;24.786;2023-03-21T08:23:52;99199.31;;;15.40;100.00
7026;BME280;3554;42.132;24.786;2023-03-21T08:26:19;99212.78;;;15.64;100.00
7026;BME280;3554;42.132;24.786;2023-03-21T08:28:50;99216.66;;;15.85;100.00
7026;BME280;3554;42.132;24.786;2023-03-21T08:31:18;99209.81;;;15.68;100.00
7026;BME280;3554;42.132;24.786;2023-03-21T08:33:46;99215.56;;;15.75;100.00
7026;BME280;3554;42.132;24.786;2023-03-21T08:36:15;99208.00;;;15.83;100.00
7026;BME280;3554;42.132;24.786;2023-03-21T08:38:42;99207.91;;;16.11;100.00
7026;BME280;3554;42.132;24.786;2023-03-21T08:41:10;99217.75;;;16.09;100.00
7026;BME280;3554;42.132;24.786;2023-03-21T08:43:37;99213.88;;;16.27;100.00
7026;BME280;3554;42.132;24.786;2023-03-21T08:46:05;99208.47;;;16.16;100.00
7026;BME280;3554;42.132;24.786;2023-03-21T08:48:33;99213.31;;;16.22;100.00
7026;BME280;3554;42.132;24.786;2023-03-21T08:51:03;99207.13;;;16.23;100.00
7026;BME280;3554;42.132;24.786;2023-03-21T08:53:30;99205.78;;;15.77;100.00
7026;BME280;3554;42.132;24.786;2023-03-21T08:55:57;99201.84;;;15.70;100.00
7026;BME280;3554;42.132;24.786;2023-03-21T08:58:24;99196.75;;;15.93;100.00
7026;BME280;3554;42.132;24.786;2023-03-21T09:00:50;99203.22;;;16.02;100.00
7026;BME280;3554;42.132;24.786;2023-03-21T09:03:17;99203.13;;;16.30;100.00
7026;BME280;3554;42.132;24.786;2023-03-21T09:05:46;99202.22;;;16.17;100.00
7026;BME280;3554;42.132;24.786;2023-03-21T09:08:12;99202.38;;;16.01;100.00
7026;BME280;3554;42.132;24.786;2023-03-21T09:10:39;99200.47;;;16.30;100.00
7026;BME280;3554;42.132;24.786;2023-03-21T09:13:06;99194.06;;;16.47;100.00
7026;BME280;3554;42.132;24.786;2023-03-21T09:15:33;99188.09;;;16.31;100.00
7026;BME280;3554;42.132;24.786;2023-03-21T09:18:00;99190.47;;;16.08;100.00
7026;BME280;3554;42.132;24.786;2023-03-21T09:20:39;99177.72;;;16.15;100.00
7026;BME280;3554;42.132;24.786;2023-03-21T09:23:09;99178.78;;;16.52;100.00
7026;BME280;3554;42.132;24.786;2023-03-21T09:25:36;99178.16;;;16.48;100.00
7026;BME280;3554;42.132;24.786;2023-03-21T09:28:04;99188.63;;;16.75;100.00
7026;BME280;3554;42.132;24.786;2023-03-21T09:30:32;99182.81;;;16.82;100.00
7026;BME280;3554;42.132;24.786;2023-03-21T09:33:00;99183.25;;;16.37;100.00
7026;BME280;3554;42.132;24.786;2023-03-21T09:35:28;99187.06;;;16.33;100.00
7026;BME280;3554;42.132;24.786;2023-03-21T09:37:55;99173.19;;;16.69;100.00
7026;BME280;3554;42.132;24.786;2023-03-21T09:40:35;99161.16;;;16.38;100.00
7026;BME280;3554;42.132;24.786;2023-03-21T09:43:10;99173.31;;;16.28;100.00
7026;BME280;3554;42.132;24.786;2023-03-21T09:45:42;99177.56;;;16.43;100.00
7026;BME280;3554;42.132;24.786;2023-03-21T09:48:21;99160.19;;;16.53;100.00
7026;BME280;3554;42.132;24.786;2023-03-21T09:50:55;99173.16;;;17.19;100.00
7026;BME280;3554;42.132;24.786;2023-03-21T09:53:26;99166.34;;;17.53;100.00
7026;BME280;3554;42.132;24.786;2023-03-21T09:55:56;99155.91;;;17.26;100.00
7026;BME280;3554;42.132;24.786;2023-03-21T09:58:28;99156.03;;;17.25;100.00
7026;BME280;3554;42.132;24.786;2023-03-21T10:01:01;99155.69;;;17.17;100.00
7026;BME280;3554;42.132;24.786;2023-03-21T10:03:31;99132.59;;;17.31;100.00
7026;BME280;3554;42.132;24.786;2023-03-21T10:06:03;99139.34;;;17.60;100.00
7026;BME280;3554;42.132;24.786;2023-03-21T10:08:34;99140.94;;;17.38;100.00
7026;BME280;3554;42.132;24.786;2023-03-21T10:11:09;99150.66;;;16.88;100.00
7026;BME280;3554;42.132;24.786;2023-03-21T10:13:40;99152.03;;;17.43;100.00
7026;BME280;3554;42.132;24.786;2023-03-21T10:16:12;99146.22;;;17.86;100.00
7026;BME280;3554;42.132;24.786;2023-03-21T10:18:42;99152.44;;;18.09;100.00
7026;BME280;3554;42.132;24.786;2023-03-21T10:21:14;99150.69;;;17.97;100.00
7026;BME280;3554;42.132;24.786;2023-03-21T10:23:44;99145.00;;;17.67;100.00
7026;BME280;3554;42.132;24.786;2023-03-21T10:26:12;99147.22;;;17.73;100.00
7026;BME280;3554;42.132;24.786;2023-03-21T10:28:40;99152.97;;;17.90;100.00
7026;BME280;3554;42.132;24.786;2023-03-21T10:31:10;99096.38;;;17.91;100.00
7026;BME280;3554;42.132;24.786;2023-03-21T10:33:43;99148.09;;;18.32;100.00
7026;BME280;3554;42.132;24.786;2023-03-21T10:36:12;99141.03;;;18.43;100.00
7026;BME280;3554;42.132;24.786;2023-03-21T10:38:45;99132.22;;;18.08;100.00
7026;BME280;3554;42.132;24.786;2023-03-21T10:41:15;99129.53;;;17.73;100.00
7026;BME280;3554;42.132;24.786;2023-03-21T10:43:43;99143.00;;;17.94;100.00
7026;BME280;3554;42.132;24.786;2023-03-21T10:46:12;99132.91;;;17.99;100.00
7026;BME280;3554;42.132;24.786;2023-03-21T10:48:43;99092.06;;;17.90;100.00
7026;BME280;3554;42.132;24.786;2023-03-21T10:51:15;99104.38;;;18.02;100.00
7026;BME280;3554;42.132;24.786;2023-03-21T10:53:45;99115.03;;;18.25;100.00
7026;BME280;3554;42.132;24.786;2023-03-21T10:56:17;99109.53;;;18.28;100.00
7026;BME280;3554;42.132;24.786;2023-03-21T10:58:48;99105.16;;;18.15;100.00
7026;BME280;3554;42.132;24.786;2023-03-21T11:01:24;99094.97;;;17.64;100.00
7026;BME280;3554;42.132;24.786;2023-03-21T11:03:56;99093.59;;;17.58;100.00
7026;BME280;3554;42.132;24.786;2023-03-21T11:06:27;99076.88;;;17.58;100.00
7026;BME280;3554;42.132;24.786;2023-03-21T11:08:58;99079.94;;;17.99;100.00
7026;BME280;3554;42.132;24.786;2023-03-21T11:11:33;99049.81;;;18.00;100.00
7026;BME280;3554;42.132;24.786;2023-03-21T11:14:02;99079.16;;;17.62;100.00
7026;BME280;3554;42.132;24.786;2023-03-21T11:16:37;99078.41;;;17.84;100.00
7026;BME280;3554;42.132;24.786;2023-03-21T11:19:12;99046.66;;;17.37;100.00
7026;BME280;3554;42.132;24.786;2023-03-21T11:21:39;99056.81;;;17.66;100.00
7026;BME280;3554;42.132;24.786;2023-03-21T11:24:12;99052.25;;;18.03;100.00
7026;BME280;3554;42.132;24.786;2023-03-21T11:26:42;99049.91;;;18.33;100.00
7026;BME280;3554;42.132;24.786;2023-03-21T11:29:19;99051.16;;;18.51;100.00
7026;BME280;3554;42.132;24.786;2023-03-21T11:31:48;99054.72;;;18.39;100.00
7026;BME280;3554;42.132;24.786;2023-03-21T11:34:24;99056.78;;;17.90;100.00
7026;BME280;3554;42.132;24.786;2023-03-21T11:36:57;99036.78;;;17.86;100.00
7026;BME280;3554;42.132;24.786;2023-03-21T11:39:36;99040.97;;;18.23;100.00
7026;BME280;3554;42.132;24.786;2023-03-21T11:42:25;99024.03;;;18.59;100.00
7026;BME280;3554;42.132;24.786;2023-03-21T11:44:59;99023.53;;;18.32;100.00
7026;BME280;3554;42.132;24.786;2023-03-21T11:47:27;99031.00;;;17.81;100.00
7026;BME280;3554;42.132;24.786;2023-03-21T11:49:55;99028.31;;;18.04;100.00
7026;BME280;3554;42.132;24.786;2023-03-21T11:52:27;98989.31;;;18.29;100.00
7026;BME280;3554;42.132;24.786;2023-03-21T11:55:09;99012.47;;;18.71;100.00
7026;BME280;3554;42.132;24.786;2023-03-21T11:57:54;99019.72;;;18.47;100.00
7026;BME280;3554;42.132;24.786;2023-03-21T12:00:29;99012.97;;;17.51;100.00
7026;BME280;3554;42.132;24.786;2023-03-21T12:03:21;99010.94;;;18.00;100.00
7026;BME280;3554;42.132;24.786;2023-03-21T12:08:41;99007.78;;;18.63;100.00
7026;BME280;3554;42.132;24.786;2023-03-21T12:11:14;98994.28;;;18.66;100.00
7026;BME280;3554;42.132;24.786;2023-03-21T12:13:53;98997.16;;;18.41;100.00
7026;BME280;3554;42.132;24.786;2023-03-21T12:16:30;98986.19;;;18.35;100.00
7026;BME280;3554;42.132;24.786;2023-03-21T12:21:52;98999.06;;;18.39;100.00
7026;BME280;3554;42.132;24.786;2023-03-21T12:24:30;98983.31;;;18.60;100.00
7026;BME280;3554;42.132;24.786;2023-03-21T12:27:03;98965.13;;;18.55;100.00
7026;BME280;3554;42.132;24.786;2023-03-21T12:30:04;98977.50;;;18.33;100.00
7026;BME280;3554;42.132;24.786;2023-03-21T12:32:46;98980.13;;;17.99;100.00
7026;BME280;3554;42.132;24.786;2023-03-21T12:35:26;98976.16;;;18.16;100.00
7026;BME280;3554;42.132;24.786;2023-03-21T12:38:02;98973.19;;;17.75;100.00
7026;BME280;3554;42.132;24.786;2023-03-21T12:40:46;98949.94;;;17.33;100.00
7026;BME280;3554;42.132;24.786;2023-03-21T12:43:26;98946.69;;;17.53;100.00
7026;BME280;3554;42.132;24.786;2023-03-21T12:45:58;98943.47;;;17.71;100.00
7026;BME280;3554;42.132;24.786;2023-03-21T12:48:36;98943.31;;;17.51;100.00
7026;BME280;3554;42.132;24.786;2023-03-21T12:51:09;98940.56;;;17.63;100.00
7026;BME280;3554;42.132;24.786;2023-03-21T12:53:55;98951.25;;;17.51;100.00
7026;BME280;3554;42.132;24.786;2023-03-21T12:56:28;98944.31;;;17.72;100.00
7026;BME280;3554;42.132;24.786;2023-03-21T12:58:59;98941.44;;;17.75;100.00
7026;BME280;3554;42.132;24.786;2023-03-21T13:01:29;98950.59;;;17.82;100.00
7026;BME280;3554;42.132;24.786;2023-03-21T13:04:07;98953.13;;;17.94;100.00
7026;BME280;3554;42.132;24.786;2023-03-21T13:06:41;98951.59;;;18.03;100.00
7026;BME280;3554;42.132;24.786;2023-03-21T13:09:13;98944.03;;;18.21;100.00
7026;BME280;3554;42.132;24.786;2023-03-21T13:11:42;98947.28;;;18.24;100.00
7026;BME280;3554;42.132;24.786;2023-03-21T13:14:13;98945.84;;;18.31;100.00
7026;BME280;3554;42.132;24.786;2023-03-21T13:16:47;98926.31;;;17.99;100.00
7026;BME280;3554;42.132;24.786;2023-03-21T13:19:25;98932.56;;;18.09;100.00
7026;BME280;3554;42.132;24.786;2023-03-21T13:21:59;98936.66;;;18.02;100.00
7026;BME280;3554;42.132;24.786;2023-03-21T13:24:32;98890.44;;;17.73;100.00
7026;BME280;3554;42.132;24.786;2023-03-21T13:27:05;98940.28;;;17.90;100.00
7026;BME280;3554;42.132;24.786;2023-03-21T13:29:34;98933.66;;;18.06;100.00